createdAt,value
2023-04-09T00:00:08.232Z,101270.56
2023-04-09T00:04:34.238Z,101264.34
2023-04-09T00:08:36.305Z,101271.31
2023-04-09T00:12:38.367Z,101264.47
2023-04-09T00:16:40.835Z,101273.41
2023-04-09T00:20:44.384Z,101265.38
2023-04-09T00:24:46.492Z,101274.16
2023-04-09T00:28:48.494Z,101264.66
2023-04-09T00:32:51.156Z,101264.09
2023-04-09T00:36:53.294Z,101258.09
2023-04-09T00:40:55.362Z,101257.34
2023-04-09T00:44:57.364Z,101258.31
2023-04-09T00:48:59.736Z,101250.44
2023-04-09T00:53:01.455Z,101248.94
2023-04-09T00:57:03.631Z,101244.97
2023-04-09T01:01:05.852Z,101255.03
2023-04-09T01:05:08.675Z,101259.75
2023-04-09T01:10:08.109Z,101252.97
2023-04-09T01:14:23.264Z,101256.59
2023-04-09T01:18:36.262Z,101263.50
2023-04-09T01:22:57.184Z,101266.25
2023-04-09T01:27:07.275Z,101270.06
2023-04-09T01:31:34.270Z,101266.47
2023-04-09T01:35:37.085Z,101267.03
2023-04-09T01:39:39.677Z,101269.69
2023-04-09T01:43:43.281Z,101268.63
2023-04-09T01:47:45.934Z,101268.47
2023-04-09T01:51:48.553Z,101272.75
2023-04-09T01:55:50.703Z,101269.31
2023-04-09T01:59:52.866Z,101276.50
2023-04-09T02:03:59.034Z,101287.84
2023-04-09T02:08:03.704Z,101286.13
2023-04-09T02:12:09.610Z,101291.91
2023-04-09T02:16:14.261Z,101293.41
2023-04-09T02:20:18.904Z,101296.69
2023-04-09T02:24:21.530Z,101294.97
2023-04-09T02:28:23.776Z,101293.25
2023-04-09T02:32:27.041Z,101300.31
2023-04-09T02:36:29.541Z,101293.19
2023-04-09T02:40:31.700Z,101295.91
2023-04-09T02:44:33.794Z,101299.09
2023-04-09T02:48:36.177Z,101295.72
2023-04-09T02:52:38.672Z,101298.88
2023-04-09T02:56:40.728Z,101291.81
2023-04-09T03:00:42.904Z,101288.69
2023-04-09T03:04:45.403Z,101290.69
2023-04-09T03:08:47.479Z,101283.88
2023-04-09T03:12:49.515Z,101280.38
2023-04-09T03:16:52.016Z,101269.69
2023-04-09T03:20:54.357Z,101265.28
2023-04-09T03:24:56.382Z,101260.66
2023-04-09T03:28:58.766Z,101259.28
2023-04-09T03:33:01.221Z,101257.81
2023-04-09T03:37:05.884Z,101267.16
2023-04-09T03:41:08.012Z,101265.22
2023-04-09T03:45:10.553Z,101267.59
2023-04-09T03:49:17.378Z,101265.63
2023-04-09T03:53:20.391Z,101252.16
2023-04-09T03:57:22.699Z,101251.09
2023-04-09T04:01:27.499Z,101250.66
2023-04-09T04:05:34.097Z,101254.38
2023-04-09T04:09:40.639Z,101256.50
2023-04-09T04:13:47.112Z,101265.00
2023-04-09T04:17:49.450Z,101262.50
2023-04-09T04:22:03.145Z,101269.19
2023-04-09T04:26:12.248Z,101271.88
2023-04-09T04:30:16.637Z,101272.56
2023-04-09T04:34:40.309Z,101282.38
2023-04-09T04:38:53.640Z,101280.38
2023-04-09T04:43:23.175Z,101291.88
2023-04-09T04:47:29.040Z,101297.53
2023-04-09T04:51:33.124Z,101302.13
2023-04-09T04:55:40.057Z,101313.59
2023-04-09T04:59:44.517Z,101318.94
2023-04-09T05:03:48.910Z,101318.31
2023-04-09T05:08:00.757Z,101312.50
2023-04-09T05:12:03.019Z,101321.13
2023-04-09T05:16:05.586Z,101312.34
2023-04-09T05:20:10.284Z,101312.53
2023-04-09T05:24:22.682Z,101306.25
2023-04-09T05:28:25.505Z,101305.91
2023-04-09T05:32:38.355Z,101299.31
2023-04-09T05:36:40.660Z,101291.97
2023-04-09T05:40:44.384Z,101289.41
2023-04-09T05:44:47.958Z,101282.66
2023-04-09T05:48:54.520Z,101279.09
2023-04-09T05:52:58.488Z,101275.75
2023-04-09T05:57:07.451Z,101270.53
2023-04-09T06:01:12.605Z,101265.81
2023-04-09T06:05:15.106Z,101272.22
2023-04-09T06:09:17.224Z,101272.03
2023-04-09T06:13:19.226Z,101269.75
2023-04-09T06:17:21.334Z,101280.88
2023-04-09T06:21:23.396Z,101283.44
2023-04-09T06:25:25.533Z,101291.47
2023-04-09T06:29:28.037Z,101296.53
2023-04-09T06:33:30.174Z,101298.44
2023-04-09T06:37:32.294Z,101311.03
2023-04-09T06:41:34.319Z,101320.81
2023-04-09T06:45:43.880Z,101348.13
2023-04-09T06:49:45.936Z,101320.47
2023-04-09T06:53:48.184Z,101336.78
2023-04-09T06:57:50.423Z,101356.03
2023-04-09T07:01:54.530Z,101368.91
2023-04-09T07:05:57.650Z,101382.72
2023-04-09T07:09:59.326Z,101384.50
2023-04-09T07:14:01.295Z,101396.09
2023-04-09T07:18:03.638Z,101394.97
2023-04-09T07:22:05.887Z,101409.75
2023-04-09T07:26:07.894Z,101404.09
2023-04-09T07:30:10.882Z,101405.00
2023-04-09T07:34:13.023Z,101411.97
2023-04-09T07:38:15.180Z,101424.72
2023-04-09T07:42:17.326Z,101436.59
2023-04-09T07:46:21.773Z,101422.84
2023-04-09T07:50:24.004Z,101422.50
2023-04-09T07:54:25.937Z,101428.03
2023-04-09T07:58:28.303Z,101441.28
2023-04-09T08:02:31.176Z,101446.19
2023-04-09T08:06:33.458Z,101442.59
2023-04-09T08:10:35.825Z,101448.97
2023-04-09T08:14:37.863Z,101436.53
2023-04-09T08:18:39.992Z,101445.81
2023-04-09T08:22:42.175Z,101446.53
2023-04-09T08:26:44.472Z,101447.19
2023-04-09T08:30:47.672Z,101451.47
2023-04-09T08:34:49.880Z,101448.75
2023-04-09T08:38:53.153Z,101445.94
2023-04-09T08:42:59.361Z,101447.63
2023-04-09T08:47:02.577Z,101458.31
2023-04-09T08:51:05.541Z,101454.56
2023-04-09T08:55:08.463Z,101460.91
2023-04-09T08:59:10.509Z,101456.88
2023-04-09T09:03:13.433Z,101463.88
2023-04-09T09:07:17.142Z,101471.56
2023-04-09T09:11:28.403Z,101464.91
2023-04-09T09:15:30.992Z,101463.31
2023-04-09T09:19:33.915Z,101464.16
2023-04-09T09:23:39.143Z,101462.16
2023-04-09T09:27:41.307Z,101467.06
2023-04-09T09:31:51.362Z,101455.59
2023-04-09T09:35:57.566Z,101464.47
2023-04-09T09:40:01.027Z,101470.25
2023-04-09T09:44:04.549Z,101458.78
2023-04-09T09:48:07.094Z,101461.19
2023-04-09T09:52:11.628Z,101462.47
2023-04-09T09:56:21.555Z,101457.75
2023-04-09T10:00:25.512Z,101451.63
2023-04-09T10:04:30.062Z,101455.44
2023-04-09T10:08:34.190Z,101450.59
2023-04-09T10:12:36.539Z,101455.28
2023-04-09T10:16:38.783Z,101450.75
2023-04-09T10:20:49.051Z,101453.25
2023-04-09T10:24:52.608Z,101443.22
2023-04-09T10:29:14.486Z,101446.47
2023-04-09T10:33:23.028Z,101440.22
2023-04-09T10:37:26.848Z,101440.53
2023-04-09T10:41:30.799Z,101449.13
2023-04-09T10:45:40.914Z,101442.03
2023-04-09T10:49:42.940Z,101444.84
2023-04-09T10:53:45.048Z,101436.84
2023-04-09T10:57:47.190Z,101436.59
2023-04-09T11:01:54.246Z,101436.53
2023-04-09T11:06:11.610Z,101425.97
2023-04-09T11:10:13.637Z,101428.75
2023-04-09T11:14:20.383Z,101426.91
2023-04-09T11:18:27.455Z,101430.22
2023-04-09T11:22:29.465Z,101431.03
2023-04-09T11:26:37.680Z,101428.81
2023-04-09T11:30:39.687Z,101434.09
2023-04-09T11:34:41.934Z,101430.44
2023-04-09T11:38:43.965Z,101424.84
2023-04-09T11:42:48.758Z,101423.25
2023-04-09T11:46:51.093Z,101419.53
2023-04-09T11:50:53.734Z,101424.59
2023-04-09T11:55:00.378Z,101422.06
2023-04-09T11:59:03.722Z,101424.59
2023-04-09T12:03:06.594Z,101421.69
2023-04-09T12:07:10.083Z,101413.53
2023-04-09T12:11:16.083Z,101409.41
2023-04-09T12:15:23.541Z,101407.84
2023-04-09T12:19:25.749Z,101412.28
2023-04-09T12:23:27.922Z,101414.72
2023-04-09T12:27:30.248Z,101413.44
2023-04-09T12:31:33.341Z,101411.84
2023-04-09T12:35:35.643Z,101411.59
2023-04-09T12:39:37.692Z,101422.09
2023-04-09T12:43:39.753Z,101420.75
2023-04-09T12:47:41.935Z,101421.47
2023-04-09T12:51:44.006Z,101412.63
2023-04-09T12:55:46.115Z,101402.19
2023-04-09T12:59:48.195Z,101392.75
2023-04-09T13:03:50.355Z,101388.53
2023-04-09T13:07:52.558Z,101390.59
2023-04-09T13:11:54.697Z,101390.56
2023-04-09T13:15:56.363Z,101391.09
2023-04-09T13:19:58.407Z,101399.88
2023-04-09T13:24:00.558Z,101398.66
2023-04-09T13:28:02.696Z,101384.88
2023-04-09T13:32:07.384Z,101387.22
2023-04-09T13:36:09.643Z,101358.16
2023-04-09T13:40:11.964Z,101297.19
2023-04-09T13:44:14.031Z,101269.97
2023-04-09T13:48:16.172Z,101262.25
2023-04-09T13:52:18.231Z,101250.28
2023-04-09T13:56:20.590Z,101253.75
2023-04-09T14:00:22.752Z,101236.91
2023-04-09T14:04:24.824Z,101227.88
2023-04-09T14:08:26.888Z,101233.78
2023-04-09T14:12:28.911Z,101236.88
2023-04-09T14:16:31.146Z,101231.56
2023-04-09T14:20:33.622Z,101229.75
2023-04-09T14:24:39.870Z,101226.44
2023-04-09T14:28:43.358Z,101229.78
2023-04-09T14:32:45.489Z,101263.09
2023-04-09T14:36:47.617Z,101285.84
2023-04-09T14:40:50.383Z,101330.28
2023-04-09T14:44:52.385Z,101317.59
2023-04-09T14:48:54.633Z,101340.00
2023-04-09T14:52:56.923Z,101328.66
2023-04-09T14:56:59.084Z,101330.25
2023-04-09T15:01:01.207Z,101328.56
2023-04-09T15:05:03.828Z,101339.72
2023-04-09T15:09:05.999Z,101352.25
2023-04-09T15:13:07.668Z,101346.25
2023-04-09T15:17:09.794Z,101349.53
2023-04-09T15:21:11.901Z,101347.81
2023-04-09T15:25:14.563Z,101349.75
2023-04-09T15:29:16.715Z,101349.91
2023-04-09T15:33:18.781Z,101351.06
2023-04-09T15:37:21.043Z,101339.91
2023-04-09T15:41:23.860Z,101349.31
2023-04-09T15:45:26.519Z,101348.06
2023-04-09T15:49:28.721Z,101348.16
2023-04-09T15:53:31.452Z,101358.50
2023-04-09T15:57:33.495Z,101357.28
2023-04-09T16:01:36.449Z,101353.97
2023-04-09T16:05:39.199Z,101360.44
2023-04-09T16:09:41.517Z,101357.22
2023-04-09T16:13:43.526Z,101363.81
2023-04-09T16:17:45.636Z,101346.88
2023-04-09T16:21:47.706Z,101355.63
2023-04-09T16:25:50.285Z,101356.72
2023-04-09T16:29:52.311Z,101354.50
2023-04-09T16:33:54.446Z,101357.63
2023-04-09T16:37:56.674Z,101350.75
2023-04-09T16:41:59.019Z,101322.91
2023-04-09T16:46:01.698Z,101329.59
2023-04-09T16:50:04.459Z,101325.22
2023-04-09T16:54:06.697Z,101304.19
2023-04-09T16:58:08.409Z,101307.94
2023-04-09T17:02:10.699Z,101283.56
2023-04-09T17:06:12.757Z,101287.66
2023-04-09T17:10:15.586Z,101284.66
2023-04-09T17:14:17.639Z,101279.28
2023-04-09T17:18:19.739Z,101283.97
2023-04-09T17:22:22.075Z,101284.31
2023-04-09T17:26:25.412Z,101291.31
2023-04-09T17:30:27.614Z,101328.50
2023-04-09T17:34:29.762Z,101363.38
2023-04-09T17:38:32.057Z,101383.03
2023-04-09T17:42:34.175Z,101384.78
2023-04-09T17:46:36.845Z,101369.91
2023-04-09T17:50:39.134Z,101375.81
2023-04-09T17:54:41.917Z,101350.28
2023-04-09T17:58:44.751Z,101348.84
2023-04-09T18:02:47.172Z,101333.59
2023-04-09T18:06:49.424Z,101338.03
2023-04-09T18:11:05.059Z,101317.88
2023-04-09T18:15:13.822Z,101288.59
2023-04-09T18:19:15.929Z,101294.91
2023-04-09T18:23:18.545Z,101302.59
2023-04-09T18:27:21.539Z,101311.31
2023-04-09T18:31:23.922Z,101312.97
2023-04-09T18:35:26.098Z,101326.34
2023-04-09T18:39:30.749Z,101327.31
2023-04-09T18:43:33.017Z,101323.78
2023-04-09T18:47:35.838Z,101328.28
2023-04-09T18:51:37.949Z,101328.56
2023-04-09T18:55:39.675Z,101334.00
2023-04-09T18:59:42.242Z,101333.63
2023-04-09T19:03:44.847Z,101329.19
2023-04-09T19:07:47.522Z,101326.88
2023-04-09T19:11:49.922Z,101325.66
2023-04-09T19:15:51.939Z,101329.13
2023-04-09T19:19:53.958Z,101322.28
2023-04-09T19:23:56.608Z,101324.22
2023-04-09T19:27:58.862Z,101329.41
2023-04-09T19:32:01.222Z,101329.41
2023-04-09T19:36:04.259Z,101333.03
2023-04-09T19:40:07.297Z,101332.41
2023-04-09T19:44:09.946Z,101331.66
2023-04-09T19:48:12.793Z,101326.53
2023-04-09T19:52:15.075Z,101332.63
2023-04-09T19:56:17.087Z,101331.59
2023-04-09T20:00:19.517Z,101328.25
2023-04-09T20:04:24.562Z,101317.53
2023-04-09T20:08:26.652Z,101320.38
2023-04-09T20:12:29.541Z,101328.41
2023-04-09T20:16:32.109Z,101323.16
2023-04-09T20:20:34.162Z,101321.44
2023-04-09T20:24:36.689Z,101327.94
2023-04-09T20:28:38.442Z,101328.00
2023-04-09T20:32:41.264Z,101321.72
2023-04-09T20:36:44.034Z,101334.81
2023-04-09T20:40:46.402Z,101331.41
2023-04-09T20:44:48.427Z,101322.66
2023-04-09T20:48:50.553Z,101323.03
2023-04-09T20:52:52.638Z,101327.63
2023-04-09T20:56:55.090Z,101325.94
2023-04-09T21:01:08.216Z,101321.97
2023-04-09T21:05:22.018Z,101312.53
2023-04-09T21:09:26.161Z,101323.19
2023-04-09T21:13:28.711Z,101321.59
2023-04-09T21:17:32.906Z,101317.19
2023-04-09T21:21:35.003Z,101320.91
2023-04-09T21:25:37.089Z,101318.44
2023-04-09T21:29:39.222Z,101331.69
2023-04-09T21:33:41.248Z,101336.94
2023-04-09T21:37:43.295Z,101340.16
2023-04-09T21:41:45.271Z,101341.69
2023-04-09T21:45:47.209Z,101336.16
2023-04-09T21:49:50.261Z,101328.00
2023-04-09T21:53:52.582Z,101334.63
2023-04-09T21:57:55.337Z,101337.94
2023-04-09T22:01:57.454Z,101339.09
2023-04-09T22:05:59.501Z,101350.88
2023-04-09T22:10:01.495Z,101351.19
2023-04-09T22:14:03.545Z,101343.63
2023-04-09T22:18:05.615Z,101356.97
2023-04-09T22:22:08.967Z,101362.59
2023-04-09T22:26:11.078Z,101363.69
2023-04-09T22:30:13.812Z,101362.13
2023-04-09T22:34:21.348Z,101361.72
2023-04-09T22:38:24.075Z,101368.09
2023-04-09T22:42:26.124Z,101380.31
2023-04-09T22:46:28.961Z,101376.19
2023-04-09T22:50:31.012Z,101374.75
2023-04-09T22:54:33.070Z,101380.34
2023-04-09T22:58:36.283Z,101381.19
2023-04-09T23:02:38.435Z,101377.94
2023-04-09T23:06:40.634Z,101368.69
2023-04-09T23:10:42.669Z,101375.06
2023-04-09T23:14:44.698Z,101383.00
2023-04-09T23:18:46.808Z,101381.38
2023-04-09T23:22:49.469Z,101380.78
2023-04-09T23:26:51.506Z,101376.50
2023-04-09T23:30:53.588Z,101369.69
2023-04-09T23:34:57.247Z,101364.78
2023-04-09T23:38:59.266Z,101361.44
2023-04-09T23:43:02.205Z,101357.38
2023-04-09T23:47:05.914Z,101354.16
2023-04-09T23:51:08.045Z,101355.00
2023-04-09T23:55:11.985Z,101349.94
2023-04-09T23:59:13.974Z,101351.59
